createdAt,value
2023-03-14T00:01:20.793Z,76.87
2023-03-14T00:03:47.570Z,76.17
2023-03-14T00:06:15.418Z,76.81
2023-03-14T00:08:43.931Z,76.28
2023-03-14T00:11:19.024Z,78.20
2023-03-14T00:13:48.780Z,76.78
2023-03-14T00:16:15.203Z,76.77
2023-03-14T00:18:41.809Z,77.23
2023-03-14T00:21:09.673Z,75.47
2023-03-14T00:23:37.815Z,75.60
2023-03-14T00:26:19.232Z,74.81
2023-03-14T00:28:46.306Z,73.53
2023-03-14T00:31:15.547Z,71.27
2023-03-14T00:33:43.149Z,69.66
2023-03-14T00:36:15.810Z,70.07
2023-03-14T00:38:43.893Z,69.87
2023-03-14T00:41:13.641Z,69.85
2023-03-14T00:43:40.334Z,71.29
2023-03-14T00:46:07.129Z,70.55
2023-03-14T00:48:33.556Z,72.02
2023-03-14T00:50:59.864Z,69.63
2023-03-14T00:53:26.281Z,68.82
2023-03-14T00:55:52.591Z,69.52
2023-03-14T00:58:19.381Z,68.89
2023-03-14T01:00:47.131Z,68.99
2023-03-14T01:03:15.094Z,68.49
2023-03-14T01:05:42.018Z,68.08
2023-03-14T01:08:08.773Z,68.30
2023-03-14T01:10:39.839Z,68.00
2023-03-14T01:13:06.368Z,68.09
2023-03-14T01:15:37.546Z,67.67
2023-03-14T01:18:04.978Z,68.25
2023-03-14T01:20:31.677Z,67.05
2023-03-14T01:22:57.989Z,67.24
2023-03-14T01:25:24.429Z,67.63
2023-03-14T01:27:50.752Z,66.95
2023-03-14T01:30:17.243Z,67.64
2023-03-14T01:32:43.617Z,67.93
2023-03-14T01:35:10.068Z,68.07
2023-03-14T01:37:36.577Z,68.31
2023-03-14T01:40:03.276Z,68.08
2023-03-14T01:42:29.642Z,68.83
2023-03-14T01:44:58.320Z,68.65
2023-03-14T01:47:25.835Z,68.01
2023-03-14T01:50:11.052Z,68.25
2023-03-14T01:52:47.193Z,68.63
2023-03-14T01:55:18.204Z,68.92
2023-03-14T01:57:51.754Z,68.63
2023-03-14T02:00:21.874Z,69.24
2023-03-14T02:03:00.953Z,69.60
2023-03-14T02:05:33.277Z,69.03
2023-03-14T02:08:01.303Z,69.35
2023-03-14T02:10:32.976Z,69.57
2023-03-14T02:13:02.531Z,69.48
2023-03-14T02:15:29.608Z,70.10
2023-03-14T02:17:57.217Z,70.13
2023-03-14T02:20:39.501Z,71.63
2023-03-14T02:23:06.312Z,71.30
2023-03-14T02:25:48.907Z,71.47
2023-03-14T02:28:15.776Z,71.55
2023-03-14T02:30:42.377Z,71.40
2023-03-14T02:33:15.986Z,71.52
2023-03-14T02:35:48.753Z,71.69
2023-03-14T02:38:20.909Z,71.50
2023-03-14T02:40:47.763Z,72.53
2023-03-14T02:43:14.326Z,71.45
2023-03-14T02:45:46.119Z,71.42
2023-03-14T02:48:20.196Z,72.16
2023-03-14T02:50:49.306Z,71.33
2023-03-14T02:53:19.657Z,70.92
2023-03-14T02:55:48.039Z,70.88
2023-03-14T02:58:14.827Z,71.85
2023-03-14T03:00:41.412Z,71.52
2023-03-14T03:03:08.006Z,71.75
2023-03-14T03:05:34.478Z,73.06
2023-03-14T03:08:00.918Z,72.98
2023-03-14T03:10:28.567Z,70.92
2023-03-14T03:12:54.946Z,71.13
2023-03-14T03:15:21.590Z,70.87
2023-03-14T03:17:47.902Z,71.77
2023-03-14T03:20:14.598Z,71.00
2023-03-14T03:22:41.047Z,70.99
2023-03-14T03:25:08.946Z,71.48
2023-03-14T03:27:37.452Z,70.52
2023-03-14T03:30:06.348Z,71.25
2023-03-14T03:32:33.139Z,71.70
2023-03-14T03:34:59.494Z,71.60
2023-03-14T03:37:26.186Z,71.53
2023-03-14T03:39:52.960Z,72.29
2023-03-14T03:42:19.440Z,71.41
2023-03-14T03:44:46.146Z,70.42
2023-03-14T03:47:12.485Z,70.40
2023-03-14T03:49:38.886Z,70.78
2023-03-14T03:52:05.616Z,71.27
2023-03-14T03:54:31.968Z,70.25
2023-03-14T03:56:58.819Z,70.33
2023-03-14T03:59:25.401Z,70.62
2023-03-14T04:01:52.002Z,71.72
2023-03-14T04:04:18.571Z,72.31
2023-03-14T04:06:45.926Z,72.01
2023-03-14T04:09:13.485Z,69.94
2023-03-14T04:11:39.924Z,71.46
2023-03-14T04:14:06.884Z,71.58
2023-03-14T04:16:33.570Z,72.59
2023-03-14T04:19:00.458Z,71.14
2023-03-14T04:21:26.989Z,73.79
2023-03-14T04:23:53.746Z,74.16
2023-03-14T04:26:20.423Z,78.83
2023-03-14T04:28:46.730Z,80.01
2023-03-14T04:31:19.216Z,81.16
2023-03-14T04:33:46.456Z,80.72
2023-03-14T04:36:12.934Z,82.29
2023-03-14T04:38:39.428Z,84.18
2023-03-14T04:41:06.210Z,84.13
2023-03-14T04:43:33.202Z,82.99
2023-03-14T04:45:59.787Z,82.55
2023-03-14T04:48:27.309Z,83.57
2023-03-14T04:50:54.029Z,83.40
2023-03-14T04:53:20.751Z,81.43
2023-03-14T04:55:51.731Z,82.27
2023-03-14T04:58:18.725Z,81.75
2023-03-14T05:00:45.607Z,81.25
2023-03-14T05:03:12.016Z,80.73
2023-03-14T05:05:38.544Z,79.39
2023-03-14T05:08:05.248Z,77.35
2023-03-14T05:10:31.922Z,77.21
2023-03-14T05:12:58.398Z,76.76
2023-03-14T05:15:25.025Z,77.29
2023-03-14T05:17:51.443Z,77.40
2023-03-14T05:20:18.049Z,75.16
2023-03-14T05:22:44.473Z,75.28
2023-03-14T05:25:11.105Z,76.38
2023-03-14T05:27:37.525Z,76.77
2023-03-14T05:30:06.515Z,75.01
2023-03-14T05:32:33.379Z,74.94
2023-03-14T05:35:00.475Z,74.10
2023-03-14T05:37:27.275Z,74.45
2023-03-14T05:39:53.772Z,74.71
2023-03-14T05:42:20.458Z,74.92
2023-03-14T05:44:46.840Z,74.11
2023-03-14T05:47:13.518Z,74.48
2023-03-14T05:49:40.033Z,73.96
2023-03-14T05:52:06.442Z,73.80
2023-03-14T05:54:33.089Z,73.38
2023-03-14T05:56:59.525Z,73.62
2023-03-14T05:59:26.182Z,74.31
2023-03-14T06:01:52.692Z,74.71
2023-03-14T06:04:19.142Z,73.95
2023-03-14T06:06:45.589Z,73.59
2023-03-14T06:09:11.937Z,74.02
2023-03-14T06:11:38.359Z,73.31
2023-03-14T06:14:04.698Z,73.47
2023-03-14T06:16:31.414Z,73.43
2023-03-14T06:18:57.850Z,73.06
2023-03-14T06:21:24.373Z,73.67
2023-03-14T06:23:50.728Z,73.17
2023-03-14T06:26:17.058Z,72.99
2023-03-14T06:28:43.529Z,72.69
2023-03-14T06:31:10.095Z,72.44
2023-03-14T06:33:37.559Z,72.35
2023-03-14T06:36:04.317Z,72.18
2023-03-14T06:38:30.882Z,71.99
2023-03-14T06:40:57.217Z,72.37
2023-03-14T06:43:23.758Z,72.07
2023-03-14T06:45:50.469Z,72.21
2023-03-14T06:48:16.883Z,72.05
2023-03-14T06:50:43.630Z,72.04
2023-03-14T06:53:09.986Z,72.34
2023-03-14T06:55:36.938Z,71.90
2023-03-14T06:58:03.543Z,71.99
2023-03-14T07:00:30.648Z,73.60
2023-03-14T07:02:57.480Z,71.84
2023-03-14T07:05:24.209Z,71.57
2023-03-14T07:07:50.571Z,71.35
2023-03-14T07:10:17.286Z,72.01
2023-03-14T07:12:43.967Z,71.90
2023-03-14T07:15:18.548Z,71.07
2023-03-14T07:17:47.355Z,71.79
2023-03-14T07:20:13.888Z,71.91
2023-03-14T07:22:40.420Z,71.73
2023-03-14T07:25:08.072Z,71.48
2023-03-14T07:27:34.431Z,72.46
2023-03-14T07:30:01.162Z,71.24
2023-03-14T07:32:27.593Z,70.20
2023-03-14T07:34:53.939Z,70.04
2023-03-14T07:37:20.651Z,69.83
2023-03-14T07:39:46.962Z,69.66
2023-03-14T07:42:14.368Z,69.95
2023-03-14T07:44:40.960Z,69.18
2023-03-14T07:47:07.365Z,68.95
2023-03-14T07:49:34.892Z,69.49
2023-03-14T07:52:01.246Z,69.49
2023-03-14T07:54:27.855Z,68.79
2023-03-14T07:56:54.273Z,69.11
2023-03-14T07:59:20.750Z,68.07
2023-03-14T08:01:48.846Z,68.86
2023-03-14T08:04:15.288Z,67.93
2023-03-14T08:06:41.677Z,68.08
2023-03-14T08:09:08.770Z,67.92
2023-03-14T08:11:35.439Z,66.64
2023-03-14T08:14:01.892Z,67.00
2023-03-14T08:16:30.187Z,66.89
2023-03-14T08:18:57.107Z,66.43
2023-03-14T08:21:25.258Z,67.17
2023-03-14T08:23:51.619Z,67.93
2023-03-14T08:26:18.240Z,68.01
2023-03-14T08:28:45.482Z,67.13
2023-03-14T08:31:12.289Z,67.63
2023-03-14T08:33:38.806Z,67.03
2023-03-14T08:36:05.559Z,67.19
2023-03-14T08:38:32.316Z,67.72
2023-03-14T08:41:00.375Z,68.21
2023-03-14T08:43:28.514Z,69.29
2023-03-14T08:45:59.408Z,69.55
2023-03-14T08:48:26.089Z,70.61
2023-03-14T08:50:52.977Z,70.83
2023-03-14T08:53:19.950Z,70.18
2023-03-14T08:55:46.325Z,70.07
2023-03-14T08:58:14.269Z,70.39
2023-03-14T09:00:40.656Z,69.95
2023-03-14T09:03:07.812Z,70.78
2023-03-14T09:05:35.122Z,69.61
2023-03-14T09:08:02.045Z,70.88
2023-03-14T09:10:28.885Z,70.44
2023-03-14T09:12:55.698Z,70.33
2023-03-14T09:15:22.424Z,70.95
2023-03-14T09:17:48.799Z,71.12
2023-03-14T09:20:17.108Z,70.55
2023-03-14T09:22:43.469Z,70.21
2023-03-14T09:25:12.230Z,70.50
2023-03-14T09:27:38.711Z,70.85
2023-03-14T09:30:06.034Z,70.50
2023-03-14T09:32:32.464Z,70.49
2023-03-14T09:34:59.320Z,70.99
2023-03-14T09:37:26.902Z,70.04
2023-03-14T09:39:53.295Z,70.42
2023-03-14T09:42:25.950Z,70.26
2023-03-14T09:44:58.031Z,70.53
2023-03-14T09:47:26.481Z,70.54
2023-03-14T09:49:53.055Z,71.32
2023-03-14T09:52:41.118Z,72.45
2023-03-14T09:55:14.433Z,72.22
2023-03-14T09:57:42.788Z,71.23
2023-03-14T10:00:20.008Z,70.81
2023-03-14T10:02:54.575Z,70.49
2023-03-14T10:05:23.720Z,71.17
2023-03-14T10:07:51.105Z,70.27
2023-03-14T10:10:21.229Z,71.62
2023-03-14T10:12:56.046Z,71.01
2023-03-14T10:15:33.954Z,71.61
2023-03-14T10:18:03.065Z,72.86
2023-03-14T10:20:29.683Z,73.05
2023-03-14T10:22:59.762Z,73.02
2023-03-14T10:25:32.044Z,71.59
2023-03-14T10:27:59.355Z,71.43
2023-03-14T10:30:39.261Z,70.08
2023-03-14T10:33:19.812Z,71.19
2023-03-14T10:35:48.041Z,69.16
2023-03-14T10:38:18.019Z,69.79
2023-03-14T10:40:50.545Z,68.08
2023-03-14T10:43:20.843Z,67.44
2023-03-14T10:45:54.999Z,66.08
2023-03-14T10:48:25.850Z,66.26
2023-03-14T10:51:08.601Z,64.84
2023-03-14T10:54:02.038Z,62.92
2023-03-14T10:56:35.978Z,63.21
2023-03-14T10:59:04.561Z,61.80
2023-03-14T11:01:40.089Z,61.77
2023-03-14T11:04:33.080Z,62.28
2023-03-14T11:07:07.672Z,63.65
2023-03-14T11:09:44.864Z,64.09
2023-03-14T11:12:36.878Z,63.80
2023-03-14T11:15:13.743Z,64.70
2023-03-14T11:18:11.165Z,64.39
2023-03-14T11:20:47.712Z,64.28
2023-03-14T11:23:20.701Z,64.93
2023-03-14T11:25:52.872Z,64.11
2023-03-14T11:28:27.130Z,59.90
2023-03-14T11:30:56.557Z,58.79
2023-03-14T11:33:32.764Z,59.53
2023-03-14T11:36:11.364Z,56.58
2023-03-14T11:38:59.584Z,57.14
2023-03-14T11:41:40.362Z,59.14
2023-03-14T11:44:26.457Z,61.82
2023-03-14T11:47:14.512Z,62.99
2023-03-14T11:49:51.940Z,63.73
2023-03-14T11:52:29.066Z,66.03
2023-03-14T11:55:14.596Z,70.47
2023-03-14T11:57:41.324Z,70.33
2023-03-14T12:00:09.105Z,69.33
2023-03-14T12:02:53.848Z,68.42
2023-03-14T12:05:41.139Z,68.81
2023-03-14T12:08:10.469Z,69.21
2023-03-14T12:10:50.548Z,67.91
2023-03-14T12:13:17.864Z,68.46
2023-03-14T12:15:55.729Z,67.53
2023-03-14T12:18:31.940Z,68.40
2023-03-14T12:21:04.705Z,69.50
2023-03-14T12:23:46.783Z,70.71
2023-03-14T12:26:13.186Z,69.92
2023-03-14T12:28:51.984Z,70.46
2023-03-14T12:31:30.206Z,69.64
2023-03-14T12:34:03.807Z,70.07
2023-03-14T12:36:45.777Z,70.15
2023-03-14T12:39:29.113Z,67.53
2023-03-14T12:42:18.300Z,67.94
2023-03-14T12:44:47.096Z,68.25
2023-03-14T12:47:19.332Z,68.25
2023-03-14T12:49:50.295Z,69.27
2023-03-14T12:52:22.101Z,70.43
2023-03-14T12:54:57.611Z,70.61
2023-03-14T12:57:37.604Z,72.11
2023-03-14T13:00:23.107Z,74.53
2023-03-14T13:02:50.920Z,76.19
2023-03-14T13:05:21.411Z,73.11
2023-03-14T13:07:47.682Z,71.68
2023-03-14T13:10:21.818Z,72.81
2023-03-14T13:12:55.498Z,73.49
2023-03-14T13:15:29.175Z,74.14
2023-03-14T13:18:02.282Z,73.68
2023-03-14T13:20:43.087Z,74.78
2023-03-14T13:23:27.622Z,76.00
2023-03-14T13:25:54.824Z,77.28
2023-03-14T13:28:21.651Z,82.16
2023-03-14T13:30:50.049Z,84.49
2023-03-14T13:33:19.287Z,84.62
2023-03-14T13:35:55.851Z,86.54
2023-03-14T13:38:25.012Z,87.99
2023-03-14T13:40:54.767Z,89.03
2023-03-14T13:43:28.231Z,81.01
2023-03-14T13:46:16.288Z,86.30
2023-03-14T13:48:49.333Z,88.16
2023-03-14T13:51:19.303Z,88.06
2023-03-14T13:53:47.986Z,89.46
2023-03-14T13:56:14.740Z,88.04
2023-03-14T13:58:42.184Z,87.91
2023-03-14T14:01:20.151Z,88.52
2023-03-14T14:03:52.077Z,89.20
2023-03-14T14:06:29.385Z,88.39
2023-03-14T14:08:57.762Z,89.44
2023-03-14T14:11:48.463Z,90.68
2023-03-14T14:14:46.315Z,90.09
2023-03-14T14:17:18.582Z,86.30
2023-03-14T14:19:47.335Z,86.00
2023-03-14T14:22:14.295Z,86.09
2023-03-14T14:24:41.744Z,85.59
2023-03-14T14:27:17.595Z,87.63
2023-03-14T14:29:45.590Z,84.73
2023-03-14T14:32:16.104Z,84.80
2023-03-14T14:34:57.444Z,84.73
2023-03-14T14:37:36.786Z,84.65
2023-03-14T14:40:11.330Z,83.44
2023-03-14T14:42:42.033Z,83.47
2023-03-14T14:45:14.997Z,82.76
2023-03-14T14:48:10.234Z,84.19
2023-03-14T14:51:02.925Z,82.83
2023-03-14T14:53:32.466Z,81.08
2023-03-14T14:56:04.291Z,79.38
2023-03-14T14:58:37.132Z,79.17
2023-03-14T15:01:05.500Z,78.23
2023-03-14T15:03:34.692Z,76.42
2023-03-14T15:06:02.571Z,76.95
2023-03-14T15:08:29.461Z,77.82
2023-03-14T15:10:56.946Z,77.44
2023-03-14T15:13:23.531Z,77.81
2023-03-14T15:15:53.637Z,79.07
2023-03-14T15:18:20.108Z,78.41
2023-03-14T15:20:46.877Z,76.93
2023-03-14T15:23:16.199Z,77.69
2023-03-14T15:25:55.055Z,78.19
2023-03-14T15:28:25.408Z,77.10
2023-03-14T15:30:55.590Z,77.99
2023-03-14T15:33:22.518Z,79.92
2023-03-14T15:35:50.019Z,78.00
2023-03-14T15:38:19.801Z,76.10
2023-03-14T15:40:46.396Z,77.73
2023-03-14T15:43:12.727Z,78.15
2023-03-14T15:45:39.209Z,76.68
2023-03-14T15:48:05.758Z,76.59
2023-03-14T15:50:32.105Z,76.86
2023-03-14T15:52:58.577Z,76.19
2023-03-14T15:55:25.398Z,77.40
2023-03-14T15:57:51.837Z,76.09
2023-03-14T16:00:20.488Z,77.09
2023-03-14T16:02:46.904Z,76.71
2023-03-14T16:05:13.928Z,76.77
2023-03-14T16:07:41.560Z,77.63
2023-03-14T16:10:09.358Z,77.25
2023-03-14T16:12:35.697Z,78.68
2023-03-14T16:15:02.294Z,77.47
2023-03-14T16:17:28.706Z,79.12
2023-03-14T16:19:55.669Z,80.06
2023-03-14T16:22:22.081Z,77.70
2023-03-14T16:24:48.402Z,76.45
2023-03-14T16:27:14.885Z,76.78
2023-03-14T16:29:43.331Z,78.05
2023-03-14T16:32:10.215Z,79.93
2023-03-14T16:34:40.148Z,79.30
2023-03-14T16:37:06.850Z,79.83
2023-03-14T16:39:33.441Z,80.26
2023-03-14T16:41:59.848Z,81.97
2023-03-14T16:44:26.162Z,82.99
2023-03-14T16:46:52.710Z,78.61
2023-03-14T16:49:19.106Z,78.42
2023-03-14T16:51:45.545Z,78.14
2023-03-14T16:54:11.878Z,76.62
2023-03-14T16:56:38.577Z,75.97
2023-03-14T16:59:05.007Z,79.39
2023-03-14T17:01:31.490Z,79.23
2023-03-14T17:03:58.175Z,78.27
2023-03-14T17:06:28.550Z,78.58
2023-03-14T17:08:56.180Z,76.79
2023-03-14T17:11:23.151Z,76.73
2023-03-14T17:13:49.801Z,76.62
2023-03-14T17:16:16.235Z,78.85
2023-03-14T17:18:42.806Z,76.81
2023-03-14T17:21:09.518Z,76.99
2023-03-14T17:23:36.191Z,72.22
2023-03-14T17:26:03.251Z,74.42
2023-03-14T17:28:29.823Z,75.76
2023-03-14T17:31:08.865Z,75.72
2023-03-14T17:33:35.380Z,77.13
2023-03-14T17:36:02.634Z,74.82
2023-03-14T17:38:28.986Z,72.64
2023-03-14T17:40:55.741Z,74.02
2023-03-14T17:43:22.740Z,74.90
2023-03-14T17:45:57.640Z,74.17
2023-03-14T17:48:24.299Z,74.79
2023-03-14T17:50:51.339Z,75.60
2023-03-14T17:53:18.877Z,75.55
2023-03-14T17:55:45.340Z,76.07
2023-03-14T17:58:11.780Z,76.18
2023-03-14T18:00:38.414Z,76.26
2023-03-14T18:03:05.034Z,75.40
2023-03-14T18:05:31.740Z,75.08
2023-03-14T18:07:58.471Z,75.20
2023-03-14T18:10:24.934Z,76.29
2023-03-14T18:12:51.435Z,75.39
2023-03-14T18:15:17.862Z,73.01
2023-03-14T18:17:44.168Z,74.66
2023-03-14T18:20:11.531Z,75.12
2023-03-14T18:22:38.691Z,76.65
2023-03-14T18:25:05.949Z,77.34
2023-03-14T18:27:32.513Z,76.76
2023-03-14T18:29:58.904Z,75.91
2023-03-14T18:32:25.275Z,76.10
2023-03-14T18:34:51.881Z,76.29
2023-03-14T18:37:18.294Z,76.89
2023-03-14T18:39:44.763Z,76.27
2023-03-14T18:42:11.179Z,76.41
2023-03-14T18:44:37.940Z,76.71
2023-03-14T18:47:04.479Z,76.41
2023-03-14T18:49:30.834Z,76.79
2023-03-14T18:51:57.176Z,77.95
2023-03-14T18:54:23.576Z,78.87
2023-03-14T18:56:49.896Z,79.10
2023-03-14T18:59:16.495Z,79.72
2023-03-14T19:01:43.481Z,79.27
2023-03-14T19:04:11.251Z,80.20
2023-03-14T19:06:38.145Z,79.86
2023-03-14T19:09:04.893Z,80.00
2023-03-14T19:11:31.648Z,79.38
2023-03-14T19:13:58.082Z,79.30
2023-03-14T19:16:24.571Z,78.82
2023-03-14T19:18:51.151Z,79.17
2023-03-14T19:21:27.561Z,79.60
2023-03-14T19:23:54.000Z,80.46
2023-03-14T19:26:20.323Z,80.63
2023-03-14T19:28:47.031Z,81.66
2023-03-14T19:31:13.715Z,82.53
2023-03-14T19:33:40.051Z,82.94
2023-03-14T19:36:07.002Z,83.14
2023-03-14T19:38:34.337Z,83.63
2023-03-14T19:41:00.741Z,83.49
2023-03-14T19:43:27.377Z,82.73
2023-03-14T19:45:54.866Z,82.79
2023-03-14T19:48:21.322Z,84.12
2023-03-14T19:50:47.758Z,85.15
2023-03-14T19:53:14.322Z,85.26
2023-03-14T19:55:40.671Z,85.87
2023-03-14T19:58:07.364Z,86.06
2023-03-14T20:00:33.774Z,86.26
2023-03-14T20:03:00.227Z,86.30
2023-03-14T20:05:26.578Z,86.50
2023-03-14T20:07:53.093Z,86.50
2023-03-14T20:10:21.445Z,86.37
2023-03-14T20:12:48.386Z,86.35
2023-03-14T20:15:14.766Z,86.34
2023-03-14T20:17:41.162Z,78.83
2023-03-14T20:20:09.023Z,79.07
2023-03-14T20:22:37.353Z,78.22
2023-03-14T20:25:05.947Z,75.17
2023-03-14T20:27:33.263Z,76.55
2023-03-14T20:29:59.801Z,74.94
2023-03-14T20:32:26.447Z,73.70
2023-03-14T20:34:53.028Z,73.42
2023-03-14T20:37:19.491Z,73.00
2023-03-14T20:39:46.043Z,70.14
2023-03-14T20:42:12.690Z,70.10
2023-03-14T20:44:39.086Z,69.29
2023-03-14T20:47:06.023Z,70.40
2023-03-14T20:49:32.445Z,68.68
2023-03-14T20:51:58.758Z,69.49
2023-03-14T20:54:25.157Z,70.39
2023-03-14T20:56:51.600Z,68.64
2023-03-14T20:59:18.022Z,67.87
2023-03-14T21:01:44.374Z,68.13
2023-03-14T21:04:10.743Z,66.42
2023-03-14T21:06:37.521Z,68.45
2023-03-14T21:09:04.352Z,69.24
2023-03-14T21:11:31.608Z,69.05
2023-03-14T21:13:59.037Z,68.29
2023-03-14T21:16:25.705Z,68.37
2023-03-14T21:18:52.044Z,69.44
2023-03-14T21:21:18.794Z,69.68
2023-03-14T21:23:45.110Z,70.04
2023-03-14T21:26:12.783Z,68.36
2023-03-14T21:28:39.211Z,69.23
2023-03-14T21:31:08.504Z,69.93
2023-03-14T21:33:35.346Z,67.18
2023-03-14T21:36:02.209Z,67.97
2023-03-14T21:38:28.740Z,68.99
2023-03-14T21:40:56.434Z,67.04
2023-03-14T21:43:23.863Z,67.24
2023-03-14T21:45:50.458Z,68.22
2023-03-14T21:48:17.035Z,68.42
2023-03-14T21:50:43.337Z,67.70
2023-03-14T21:53:10.667Z,67.47
2023-03-14T21:55:44.727Z,65.76
2023-03-14T21:58:11.711Z,66.31
2023-03-14T22:00:38.011Z,68.31
2023-03-14T22:03:13.008Z,67.33
2023-03-14T22:05:44.812Z,67.61
2023-03-14T22:08:12.400Z,68.72
2023-03-14T22:10:46.810Z,67.75
2023-03-14T22:13:13.664Z,68.50
2023-03-14T22:15:40.058Z,69.46
2023-03-14T22:18:06.516Z,67.56
2023-03-14T22:20:34.091Z,67.92
2023-03-14T22:23:00.576Z,65.28
2023-03-14T22:25:27.007Z,65.07
2023-03-14T22:27:53.840Z,66.39
2023-03-14T22:30:20.435Z,64.58
2023-03-14T22:32:46.926Z,64.32
2023-03-14T22:35:13.316Z,63.80
2023-03-14T22:37:41.432Z,63.74
2023-03-14T22:40:08.769Z,63.47
2023-03-14T22:42:35.415Z,63.29
2023-03-14T22:45:02.404Z,64.75
2023-03-14T22:47:28.809Z,63.20
2023-03-14T22:49:55.189Z,62.14
2023-03-14T22:52:21.662Z,62.78
2023-03-14T22:54:48.057Z,62.98
2023-03-14T22:57:14.564Z,65.08
2023-03-14T22:59:40.915Z,65.84
2023-03-14T23:02:07.217Z,65.30
2023-03-14T23:04:33.915Z,64.23
2023-03-14T23:07:00.323Z,64.80
2023-03-14T23:09:26.647Z,65.39
2023-03-14T23:11:53.911Z,64.12
2023-03-14T23:14:20.653Z,65.38
2023-03-14T23:16:46.983Z,63.99
2023-03-14T23:19:13.354Z,65.13
2023-03-14T23:21:40.079Z,64.88
2023-03-14T23:24:06.880Z,64.93
2023-03-14T23:26:34.090Z,66.29
2023-03-14T23:29:00.440Z,67.31
2023-03-14T23:31:27.781Z,67.93
2023-03-14T23:33:54.385Z,67.96
2023-03-14T23:36:20.693Z,68.94
2023-03-14T23:38:47.188Z,65.91
2023-03-14T23:41:14.894Z,65.72
2023-03-14T23:43:45.341Z,67.13
2023-03-14T23:46:12.370Z,65.70
2023-03-14T23:48:39.169Z,65.02
2023-03-14T23:51:08.436Z,64.97
2023-03-14T23:53:34.863Z,65.56
2023-03-14T23:56:02.321Z,66.17
2023-03-14T23:58:30.050Z,64.46
